createdAt,value
2018-12-17T00:01:47.518Z,26.10
2018-12-17T00:04:15.576Z,28.10
2018-12-17T00:06:43.449Z,29.27
2018-12-17T00:09:11.294Z,28.47
2018-12-17T00:11:39.637Z,24.87
2018-12-17T00:14:07.528Z,25.03
2018-12-17T00:16:35.547Z,27.50
2018-12-17T00:19:03.524Z,25.07
2018-12-17T00:21:31.410Z,26.30
2018-12-17T00:23:59.296Z,26.67
2018-12-17T00:26:27.135Z,25.17
2018-12-17T00:28:55.008Z,26.00
2018-12-17T00:31:22.918Z,24.47
2018-12-17T00:33:50.773Z,25.07
2018-12-17T00:36:18.663Z,26.53
2018-12-17T00:38:46.520Z,25.03
2018-12-17T00:41:21.109Z,24.73
2018-12-17T00:43:49.267Z,25.20
2018-12-17T00:46:17.101Z,25.83
2018-12-17T00:48:45.004Z,25.50
2018-12-17T00:51:12.943Z,26.53
2018-12-17T00:53:40.813Z,26.07
2018-12-17T00:56:09.148Z,26.43
2018-12-17T00:58:37.060Z,26.03
2018-12-17T01:01:04.904Z,25.37
2018-12-17T01:03:32.771Z,25.27
2018-12-17T01:06:01.369Z,26.10
2018-12-17T01:08:29.766Z,25.47
2018-12-17T01:10:57.665Z,27.00
2018-12-17T01:13:25.531Z,26.70
2018-12-17T01:15:53.405Z,24.67
2018-12-17T01:18:21.333Z,26.50
2018-12-17T01:20:49.190Z,25.60
2018-12-17T01:23:17.124Z,26.60
2018-12-17T01:25:45.028Z,25.47
2018-12-17T01:28:13.275Z,25.77
2018-12-17T01:30:41.173Z,25.17
2018-12-17T01:33:09.072Z,24.07
2018-12-17T01:35:36.984Z,25.33
2018-12-17T01:38:05.118Z,24.70
2018-12-17T01:40:33.536Z,25.03
2018-12-17T01:43:01.439Z,25.73
2018-12-17T01:45:29.325Z,26.50
2018-12-17T01:47:57.203Z,25.30
2018-12-17T01:50:25.120Z,27.03
2018-12-17T01:52:53.008Z,24.93
2018-12-17T01:55:20.920Z,24.97
2018-12-17T01:57:48.744Z,24.43
2018-12-17T02:00:16.659Z,24.37
2018-12-17T02:02:44.707Z,23.40
2018-12-17T02:05:12.504Z,24.17
2018-12-17T02:07:40.334Z,23.37
2018-12-17T02:10:08.244Z,23.60
2018-12-17T02:12:36.095Z,24.17
2018-12-17T02:15:04.376Z,23.00
2018-12-17T02:17:32.190Z,23.30
2018-12-17T02:20:00.447Z,22.73
2018-12-17T02:22:28.285Z,22.63
2018-12-17T02:24:56.147Z,23.23
2018-12-17T02:27:23.997Z,23.60
2018-12-17T02:29:51.852Z,23.83
2018-12-17T02:32:19.687Z,23.33
2018-12-17T02:34:47.499Z,22.87
2018-12-17T02:37:15.381Z,24.30
2018-12-17T02:39:43.251Z,23.47
2018-12-17T02:42:11.140Z,25.00
2018-12-17T02:44:39.002Z,25.43
2018-12-17T02:47:06.840Z,24.87
2018-12-17T02:49:34.746Z,24.10
2018-12-17T02:52:02.559Z,25.20
2018-12-17T02:54:30.576Z,23.77
2018-12-17T02:56:58.383Z,22.73
2018-12-17T02:59:26.271Z,23.60
2018-12-17T03:01:54.086Z,24.37
2018-12-17T03:04:22.408Z,24.53
2018-12-17T03:06:50.308Z,22.60
2018-12-17T03:09:18.159Z,23.73
2018-12-17T03:11:46.059Z,23.87
2018-12-17T03:14:13.896Z,22.13
2018-12-17T03:16:41.741Z,23.67
2018-12-17T03:19:09.592Z,23.07
2018-12-17T03:21:37.469Z,23.67
2018-12-17T03:24:05.471Z,23.67
2018-12-17T03:26:33.344Z,23.70
2018-12-17T03:29:01.196Z,24.37
2018-12-17T03:31:29.359Z,23.47
2018-12-17T03:33:57.166Z,22.93
2018-12-17T03:36:25.053Z,23.77
2018-12-17T03:38:52.899Z,23.13
2018-12-17T03:41:20.876Z,24.87
2018-12-17T03:43:48.791Z,24.03
2018-12-17T03:46:16.623Z,24.10
2018-12-17T03:48:44.509Z,22.30
2018-12-17T03:51:12.339Z,24.43
2018-12-17T03:53:40.248Z,24.07
2018-12-17T03:56:08.088Z,23.73
2018-12-17T03:58:35.923Z,23.13
2018-12-17T04:01:03.803Z,24.33
2018-12-17T04:03:31.679Z,24.10
2018-12-17T04:05:59.567Z,25.10
2018-12-17T04:08:27.379Z,25.90
2018-12-17T04:10:55.280Z,23.77
2018-12-17T04:13:23.079Z,25.77
2018-12-17T04:15:50.924Z,25.20
2018-12-17T04:18:18.811Z,23.00
2018-12-17T04:20:46.852Z,24.50
2018-12-17T04:23:14.714Z,23.60
2018-12-17T04:25:43.003Z,25.43
2018-12-17T04:28:10.809Z,22.97
2018-12-17T04:30:38.705Z,24.73
2018-12-17T04:33:06.591Z,25.80
2018-12-17T04:35:34.455Z,24.30
2018-12-17T04:38:02.442Z,24.07
2018-12-17T04:40:30.335Z,22.80
2018-12-17T04:42:58.140Z,22.30
2018-12-17T04:45:26.019Z,21.93
2018-12-17T04:47:53.913Z,23.83
2018-12-17T04:50:21.718Z,22.80
2018-12-17T04:52:49.552Z,22.33
2018-12-17T04:55:17.443Z,23.67
2018-12-17T04:57:45.654Z,22.30
2018-12-17T05:00:13.810Z,25.53
2018-12-17T05:02:41.604Z,26.80
2018-12-17T05:05:09.499Z,27.63
2018-12-17T05:07:37.328Z,24.90
2018-12-17T05:10:06.080Z,27.90
2018-12-17T05:12:33.945Z,27.27
2018-12-17T05:15:03.710Z,25.43
2018-12-17T05:17:31.737Z,21.03
2018-12-17T05:19:59.560Z,21.43
2018-12-17T05:22:27.423Z,19.47
2018-12-17T05:24:55.311Z,20.73
2018-12-17T05:27:23.141Z,20.33
2018-12-17T05:29:50.990Z,19.90
2018-12-17T05:32:19.091Z,20.03
2018-12-17T05:34:46.959Z,19.23
2018-12-17T05:37:14.785Z,19.13
2018-12-17T05:39:42.669Z,19.50
2018-12-17T05:42:10.564Z,18.47
2018-12-17T05:44:38.436Z,18.73
2018-12-17T05:47:06.596Z,20.53
2018-12-17T05:49:34.884Z,18.93
2018-12-17T05:52:02.919Z,18.43
2018-12-17T05:54:41.806Z,19.90
2018-12-17T05:57:09.683Z,18.97
2018-12-17T05:59:37.802Z,18.60
2018-12-17T06:02:05.749Z,20.03
2018-12-17T06:04:33.783Z,19.80
2018-12-17T06:07:02.090Z,21.10
2018-12-17T06:09:30.257Z,20.13
2018-12-17T06:11:58.360Z,19.77
2018-12-17T06:14:26.211Z,19.53
2018-12-17T06:16:54.082Z,20.67
2018-12-17T06:19:21.943Z,19.77
2018-12-17T06:21:50.567Z,19.67
2018-12-17T06:24:19.068Z,18.90
2018-12-17T06:26:46.894Z,17.40
2018-12-17T06:29:15.087Z,17.23
2018-12-17T06:31:43.450Z,18.20
2018-12-17T06:34:11.577Z,17.33
2018-12-17T06:36:39.390Z,18.67
2018-12-17T06:39:08.137Z,19.10
2018-12-17T06:41:36.181Z,17.80
2018-12-17T06:44:04.738Z,18.20
2018-12-17T06:46:32.760Z,19.93
2018-12-17T06:49:00.779Z,19.17
2018-12-17T06:51:29.867Z,17.77
2018-12-17T06:53:57.702Z,17.33
2018-12-17T06:56:25.846Z,15.73
2018-12-17T06:58:53.940Z,16.30
2018-12-17T07:01:21.799Z,15.87
2018-12-17T07:03:49.786Z,16.70
2018-12-17T07:06:17.629Z,18.23
2018-12-17T07:08:45.721Z,16.13
2018-12-17T07:11:13.726Z,15.50
2018-12-17T07:13:41.548Z,15.10
2018-12-17T07:16:09.423Z,15.33
2018-12-17T07:18:37.281Z,14.50
2018-12-17T07:21:05.199Z,14.73
2018-12-17T07:23:33.013Z,15.33
2018-12-17T07:26:00.874Z,16.70
2018-12-17T07:28:28.807Z,15.27
2018-12-17T07:30:56.615Z,15.47
2018-12-17T07:33:24.389Z,15.30
2018-12-17T07:35:52.203Z,14.83
2018-12-17T07:38:20.175Z,14.23
2018-12-17T07:40:47.961Z,13.80
2018-12-17T07:43:15.783Z,13.70
2018-12-17T07:45:43.574Z,14.77
2018-12-17T07:48:11.466Z,13.70
2018-12-17T07:50:40.551Z,15.40
2018-12-17T07:53:08.653Z,13.27
2018-12-17T07:55:36.531Z,15.10
2018-12-17T07:58:04.370Z,15.37
2018-12-17T08:00:32.211Z,17.07
2018-12-17T08:03:00.063Z,16.47
2018-12-17T08:05:27.887Z,15.07
2018-12-17T08:07:55.698Z,14.57
2018-12-17T08:10:23.555Z,13.90
2018-12-17T08:12:51.639Z,14.60
2018-12-17T08:15:19.437Z,14.33
2018-12-17T08:17:47.299Z,12.93
2018-12-17T08:20:15.090Z,14.87
2018-12-17T08:22:43.285Z,13.33
2018-12-17T08:25:11.128Z,14.83
2018-12-17T08:27:38.963Z,14.10
2018-12-17T08:30:07.387Z,12.50
2018-12-17T08:41:16.239Z,13.87
2018-12-17T08:43:44.185Z,13.60
2018-12-17T08:46:12.003Z,13.90
2018-12-17T08:48:39.816Z,13.57
2018-12-17T08:51:07.637Z,12.43
2018-12-17T08:53:35.468Z,13.50
2018-12-17T08:56:03.460Z,14.20
2018-12-17T08:58:31.871Z,13.53
2018-12-17T09:00:59.680Z,13.73
2018-12-17T09:03:27.499Z,15.67
2018-12-17T09:05:55.364Z,13.30
2018-12-17T09:08:23.205Z,12.03
2018-12-17T09:10:51.199Z,12.00
2018-12-17T09:13:19.087Z,12.43
2018-12-17T09:15:46.932Z,11.50
2018-12-17T09:18:14.828Z,11.40
2018-12-17T09:20:42.667Z,11.27
2018-12-17T09:23:10.535Z,11.93
2018-12-17T09:25:38.375Z,11.73
2018-12-17T09:28:06.299Z,12.07
2018-12-17T09:30:41.133Z,10.63
2018-12-17T09:33:04.252Z,12.80
2018-12-17T09:35:32.171Z,11.73
2018-12-17T09:38:00.017Z,11.90
2018-12-17T09:40:27.888Z,11.43
2018-12-17T09:42:55.984Z,12.40
2018-12-17T09:45:23.875Z,10.90
2018-12-17T09:47:51.733Z,11.53
2018-12-17T09:50:19.592Z,12.13
2018-12-17T09:52:47.439Z,12.20
2018-12-17T09:55:20.436Z,12.57
2018-12-17T09:57:51.485Z,12.00
2018-12-17T10:00:29.240Z,12.73
2018-12-17T10:02:59.219Z,14.57
2018-12-17T10:05:27.112Z,12.23
2018-12-17T10:07:55.259Z,11.03
2018-12-17T10:10:23.075Z,10.87
2018-12-17T10:12:50.971Z,12.67
2018-12-17T10:15:18.967Z,11.53
2018-12-17T10:17:46.879Z,10.83
2018-12-17T10:20:14.799Z,11.43
2018-12-17T10:22:42.671Z,11.90
2018-12-17T10:25:18.808Z,11.60
2018-12-17T10:27:54.212Z,10.47
2018-12-17T10:30:22.083Z,10.07
2018-12-17T10:32:49.987Z,11.70
2018-12-17T10:35:17.855Z,10.07
2018-12-17T10:37:45.773Z,10.17
2018-12-17T10:40:13.773Z,9.57
2018-12-17T10:42:41.726Z,9.43
2018-12-17T10:45:09.639Z,8.53
2018-12-17T10:47:37.683Z,8.40
2018-12-17T10:50:06.979Z,7.90
2018-12-17T10:52:34.951Z,8.00
2018-12-17T10:55:04.226Z,8.43
2018-12-17T10:57:32.191Z,7.70
2018-12-17T11:00:00.086Z,7.70
2018-12-17T11:02:33.803Z,8.03
2018-12-17T11:05:17.934Z,6.73
2018-12-17T11:07:46.250Z,7.50
2018-12-17T11:10:14.125Z,8.40
2018-12-17T11:12:42.176Z,8.60
2018-12-17T11:15:11.876Z,7.50
2018-12-17T11:17:40.072Z,8.03
2018-12-17T11:20:10.095Z,7.73
2018-12-17T11:22:38.006Z,7.47
2018-12-17T11:25:06.806Z,7.07
2018-12-17T11:27:34.808Z,7.00
2018-12-17T11:30:03.424Z,6.27
2018-12-17T11:32:31.936Z,6.87
2018-12-17T11:34:59.863Z,6.47
2018-12-17T11:37:27.639Z,5.73
2018-12-17T11:39:55.527Z,7.27
2018-12-17T11:42:23.405Z,6.37
2018-12-17T11:44:51.491Z,6.73
2018-12-17T11:47:19.475Z,7.23
2018-12-17T11:49:47.423Z,7.10
2018-12-17T11:52:15.299Z,6.93
2018-12-17T11:54:43.142Z,6.63
2018-12-17T11:57:26.753Z,6.00
2018-12-17T11:59:54.752Z,6.33
2018-12-17T12:02:22.683Z,7.10
2018-12-17T12:04:50.588Z,6.30
2018-12-17T12:07:18.609Z,6.37
2018-12-17T12:10:09.482Z,6.53
2018-12-17T12:12:37.527Z,6.17
2018-12-17T12:15:05.612Z,6.47
2018-12-17T12:17:33.532Z,6.33
2018-12-17T12:20:01.343Z,5.53
2018-12-17T12:22:29.252Z,5.80
2018-12-17T12:24:57.289Z,6.43
2018-12-17T12:27:25.502Z,7.00
2018-12-17T12:29:53.494Z,7.23
2018-12-17T12:32:21.643Z,6.87
2018-12-17T12:34:49.456Z,7.63
2018-12-17T12:37:17.240Z,8.60
2018-12-17T12:39:45.090Z,7.90
2018-12-17T12:42:12.925Z,7.20
2018-12-17T12:44:40.812Z,7.73
2018-12-17T12:47:08.639Z,7.60
2018-12-17T12:49:36.534Z,7.73
2018-12-17T12:52:04.405Z,7.37
2018-12-17T12:54:32.632Z,7.87
2018-12-17T12:57:00.827Z,8.00
2018-12-17T12:59:29.139Z,8.00
2018-12-17T13:01:56.935Z,7.23
2018-12-17T13:04:24.826Z,7.67
2018-12-17T13:06:57.405Z,7.57
2018-12-17T13:09:31.504Z,7.03
2018-12-17T13:11:59.425Z,7.17
2018-12-17T13:14:27.321Z,6.33
2018-12-17T13:16:55.283Z,6.77
2018-12-17T13:19:23.111Z,7.83
2018-12-17T13:21:50.924Z,7.53
2018-12-17T13:24:18.767Z,6.43
2018-12-17T13:26:46.621Z,6.90
2018-12-17T13:29:14.973Z,6.90
2018-12-17T13:31:42.993Z,7.10
2018-12-17T13:34:11.291Z,7.40
2018-12-17T13:36:39.877Z,7.03
2018-12-17T13:39:08.378Z,7.50
2018-12-17T13:41:36.816Z,7.57
2018-12-17T13:44:05.098Z,7.07
2018-12-17T13:46:33.063Z,7.43
2018-12-17T13:49:01.204Z,7.43
2018-12-17T13:51:34.287Z,7.83
2018-12-17T13:54:02.227Z,7.50
2018-12-17T13:56:30.271Z,7.60
2018-12-17T13:59:02.755Z,7.70
2018-12-17T14:01:30.645Z,7.97
2018-12-17T14:03:58.532Z,7.23
2018-12-17T14:06:26.622Z,7.60
2018-12-17T14:08:59.258Z,6.37
2018-12-17T14:11:27.154Z,6.93
2018-12-17T14:13:55.080Z,7.03
2018-12-17T14:16:27.744Z,6.97
2018-12-17T14:19:01.642Z,6.83
2018-12-17T14:21:35.135Z,6.13
2018-12-17T14:24:03.019Z,6.17
2018-12-17T14:26:33.640Z,6.20
2018-12-17T14:29:02.047Z,6.13
2018-12-17T14:31:33.868Z,5.83
2018-12-17T14:34:03.846Z,5.87
2018-12-17T14:36:33.219Z,5.73
2018-12-17T14:39:01.102Z,5.97
2018-12-17T14:41:32.993Z,6.27
2018-12-17T14:44:07.436Z,5.10
2018-12-17T14:46:39.831Z,5.73
2018-12-17T14:49:08.283Z,5.50
2018-12-17T14:51:36.445Z,5.90
2018-12-17T14:54:04.806Z,5.70
2018-12-17T14:56:33.696Z,5.77
2018-12-17T14:59:01.620Z,6.80
2018-12-17T15:01:35.606Z,6.80
2018-12-17T15:04:01.513Z,6.03
2018-12-17T15:06:30.641Z,6.27
2018-12-17T15:08:58.736Z,6.30
2018-12-17T15:11:26.599Z,6.57
2018-12-17T15:13:56.269Z,6.60
2018-12-17T15:16:24.653Z,5.50
2018-12-17T15:18:53.628Z,6.30
2018-12-17T15:21:21.503Z,6.30
2018-12-17T15:23:49.416Z,8.83
2018-12-17T15:26:17.292Z,7.87
2018-12-17T15:28:45.179Z,9.13
2018-12-17T15:31:13.058Z,8.60
2018-12-17T15:33:41.018Z,9.00
2018-12-17T15:36:08.863Z,9.17
2018-12-17T15:38:36.745Z,10.70
2018-12-17T15:41:04.643Z,11.53
2018-12-17T15:43:35.806Z,12.77
2018-12-17T15:46:04.156Z,12.40
2018-12-17T15:48:32.003Z,11.50
2018-12-17T15:50:59.887Z,11.17
2018-12-17T15:53:27.752Z,11.27
2018-12-17T15:55:55.627Z,10.03
2018-12-17T15:58:23.519Z,9.73
2018-12-17T16:00:51.479Z,11.10
2018-12-17T16:03:19.319Z,10.23
2018-12-17T16:05:47.176Z,10.93
2018-12-17T16:08:15.076Z,11.37
2018-12-17T16:10:42.954Z,11.73
2018-12-17T16:13:10.802Z,11.23
2018-12-17T16:15:38.991Z,12.57
2018-12-17T16:18:06.817Z,13.40
2018-12-17T16:20:34.827Z,13.30
2018-12-17T16:23:02.734Z,13.90
2018-12-17T16:25:30.831Z,13.43
2018-12-17T16:27:58.703Z,13.93
2018-12-17T16:30:26.728Z,14.67
2018-12-17T16:32:54.799Z,15.47
2018-12-17T16:35:22.832Z,14.73
2018-12-17T16:37:50.634Z,14.60
2018-12-17T16:40:18.534Z,15.20
2018-12-17T16:42:46.409Z,16.10
2018-12-17T16:45:14.418Z,17.17
2018-12-17T16:47:42.256Z,16.50
2018-12-17T16:50:10.142Z,16.83
2018-12-17T16:52:38.942Z,15.43
2018-12-17T16:55:07.256Z,16.93
2018-12-17T16:57:35.295Z,16.17
2018-12-17T17:00:04.582Z,15.47
2018-12-17T17:02:32.468Z,16.13
2018-12-17T17:05:00.355Z,17.07
2018-12-17T17:07:28.263Z,16.00
2018-12-17T17:10:00.758Z,15.97
2018-12-17T17:12:28.610Z,18.00
2018-12-17T17:14:56.414Z,17.60
2018-12-17T17:17:24.360Z,17.00
2018-12-17T17:19:52.262Z,18.57
2018-12-17T17:22:20.086Z,18.33
2018-12-17T17:24:48.231Z,17.93
2018-12-17T17:27:16.066Z,18.03
2018-12-17T17:29:43.946Z,17.33
2018-12-17T17:32:30.303Z,19.83
2018-12-17T17:34:58.175Z,18.30
2018-12-17T17:37:26.055Z,19.70
2018-12-17T17:39:53.963Z,18.93
2018-12-17T17:42:21.838Z,18.87
2018-12-17T17:44:49.694Z,21.50
2018-12-17T17:47:17.583Z,19.63
2018-12-17T17:49:45.782Z,20.37
2018-12-17T17:52:13.556Z,18.63
2018-12-17T17:54:41.460Z,19.97
2018-12-17T17:57:09.307Z,22.07
2018-12-17T17:59:37.119Z,21.37
2018-12-17T18:02:05.265Z,20.50
2018-12-17T18:04:33.141Z,21.97
2018-12-17T18:07:00.971Z,22.40
2018-12-17T18:09:28.819Z,19.30
2018-12-17T18:11:56.680Z,25.67
2018-12-17T18:14:24.546Z,20.50
2018-12-17T18:16:52.304Z,21.90
2018-12-17T18:19:20.378Z,20.67
2018-12-17T18:21:48.201Z,22.03
2018-12-17T18:24:16.096Z,21.67
2018-12-17T18:26:43.932Z,20.70
2018-12-17T18:29:11.835Z,21.23
2018-12-17T18:31:39.754Z,21.33
2018-12-17T18:34:07.729Z,22.03
2018-12-17T18:36:35.638Z,22.87
2018-12-17T18:39:06.495Z,22.10
2018-12-17T18:41:34.376Z,22.70
2018-12-17T18:44:02.297Z,22.17
2018-12-17T18:46:30.182Z,20.27
2018-12-17T18:48:59.110Z,21.20
2018-12-17T18:51:27.023Z,21.10
2018-12-17T18:53:55.538Z,20.80
2018-12-17T18:56:23.643Z,21.17
2018-12-17T18:58:51.832Z,24.30
2018-12-17T19:01:19.799Z,26.07
2018-12-17T19:03:47.716Z,25.07
2018-12-17T19:06:15.659Z,22.60
2018-12-17T19:08:43.506Z,22.20
2018-12-17T19:11:11.407Z,22.33
2018-12-17T19:13:39.226Z,23.27
2018-12-17T19:16:07.067Z,23.73
2018-12-17T19:18:34.898Z,22.83
2018-12-17T19:21:02.805Z,22.43
2018-12-17T19:23:30.614Z,20.60
2018-12-17T19:25:58.516Z,21.87
2018-12-17T19:28:26.375Z,22.13
2018-12-17T19:30:54.355Z,21.23
2018-12-17T19:33:22.163Z,20.50
2018-12-17T19:35:50.006Z,21.40
2018-12-17T19:38:17.855Z,21.57
2018-12-17T19:40:45.751Z,21.47
2018-12-17T19:43:13.610Z,19.90
2018-12-17T19:45:41.426Z,21.23
2018-12-17T19:48:13.328Z,21.23
2018-12-17T19:50:41.266Z,21.57
2018-12-17T19:53:09.386Z,20.73
2018-12-17T19:55:37.250Z,22.23
2018-12-17T19:58:05.112Z,21.43
2018-12-17T20:00:32.987Z,20.87
2018-12-17T20:03:01.308Z,21.50
2018-12-17T20:05:29.162Z,20.70
2018-12-17T20:07:57.095Z,22.37
2018-12-17T20:10:26.642Z,22.87
2018-12-17T20:12:54.928Z,21.83
2018-12-17T20:15:23.095Z,21.90
2018-12-17T20:17:51.032Z,21.43
2018-12-17T20:20:18.903Z,22.93
2018-12-17T20:22:46.783Z,21.30
2018-12-17T20:25:14.643Z,21.43
2018-12-17T20:27:42.451Z,22.13
2018-12-17T20:30:11.871Z,23.40
2018-12-17T20:32:39.778Z,20.30
2018-12-17T20:35:08.402Z,21.53
2018-12-17T20:37:36.393Z,23.87
2018-12-17T20:40:05.159Z,22.63
2018-12-17T20:42:33.141Z,22.50
2018-12-17T20:45:01.007Z,22.37
2018-12-17T20:47:28.815Z,23.47
2018-12-17T20:49:56.633Z,23.23
2018-12-17T20:52:25.917Z,24.07
2018-12-17T20:54:53.899Z,22.93
2018-12-17T20:57:21.750Z,23.70
2018-12-17T20:59:49.555Z,22.43
2018-12-17T21:02:17.436Z,22.23
2018-12-17T21:04:45.283Z,23.70
2018-12-17T21:07:13.178Z,23.43
2018-12-17T21:09:41.044Z,23.33
2018-12-17T21:12:08.994Z,23.67
2018-12-17T21:14:36.864Z,23.50
2018-12-17T21:17:04.669Z,24.67
2018-12-17T21:19:32.610Z,23.07
2018-12-17T21:22:00.475Z,23.33
2018-12-17T21:24:28.307Z,24.17
2018-12-17T21:26:56.285Z,23.60
2018-12-17T21:29:24.119Z,24.43
2018-12-17T21:31:51.956Z,25.07
2018-12-17T21:34:19.822Z,25.30
2018-12-17T21:36:47.674Z,23.63
2018-12-17T21:39:15.524Z,26.37
2018-12-17T21:41:43.362Z,24.10
2018-12-17T21:44:12.087Z,25.77
2018-12-17T21:46:39.930Z,26.20
2018-12-17T21:49:07.775Z,25.27
2018-12-17T21:51:35.675Z,25.03
2018-12-17T21:54:03.555Z,26.10
2018-12-17T21:56:31.405Z,26.33
2018-12-17T21:58:59.223Z,24.77
2018-12-17T22:01:27.047Z,25.87
2018-12-17T22:03:54.880Z,24.63
2018-12-17T22:06:22.788Z,26.60
2018-12-17T22:08:50.645Z,25.20
2018-12-17T22:11:18.508Z,27.00
2018-12-17T22:13:46.643Z,25.97
2018-12-17T22:16:14.480Z,23.53
2018-12-17T22:18:42.290Z,24.47
2018-12-17T22:21:10.296Z,24.87
2018-12-17T22:23:38.155Z,25.80
2018-12-17T22:26:06.056Z,25.17
2018-12-17T22:28:33.995Z,22.60
2018-12-17T22:31:01.889Z,24.73
2018-12-17T22:33:29.753Z,24.10
2018-12-17T22:35:57.594Z,26.43
2018-12-17T22:38:25.510Z,25.20
2018-12-17T22:40:53.416Z,26.13
2018-12-17T22:43:21.270Z,26.23
2018-12-17T22:45:49.125Z,23.93
2018-12-17T22:48:16.962Z,24.63
2018-12-17T22:50:44.777Z,23.77
2018-12-17T22:53:12.643Z,25.43
2018-12-17T22:55:40.576Z,24.47
2018-12-17T22:58:08.442Z,24.80
2018-12-17T23:00:36.522Z,25.90
2018-12-17T23:03:04.410Z,24.60
2018-12-17T23:05:32.709Z,26.47
2018-12-17T23:08:00.618Z,25.37
2018-12-17T23:10:44.500Z,26.37
2018-12-17T23:13:23.551Z,26.83
2018-12-17T23:16:02.805Z,26.53
2018-12-17T23:18:29.474Z,27.00
2018-12-17T23:20:57.334Z,28.87
2018-12-17T23:23:25.299Z,27.40
2018-12-17T23:25:53.170Z,27.20
2018-12-17T23:28:21.147Z,26.10
2018-12-17T23:30:49.014Z,28.30
2018-12-17T23:33:16.939Z,28.63
2018-12-17T23:35:44.783Z,29.30
2018-12-17T23:38:12.604Z,29.00
2018-12-17T23:40:40.549Z,28.63
2018-12-17T23:43:08.342Z,28.23
2018-12-17T23:45:36.206Z,28.53
2018-12-17T23:48:04.113Z,28.23
2018-12-17T23:50:31.992Z,29.47
2018-12-17T23:52:59.912Z,28.33
2018-12-17T23:55:27.890Z,31.03
2018-12-17T23:57:55.717Z,29.80
